Heidenheimer, Texas
Current Conditions -  °F | °C
As of 10:15 AM on Thursday 29 Jan 2015 (Local Time) from KTPL Reporting Station
Clear Clear  
Wind Chill: 63°   Ceiling: Unl
Heat Index: 63°   Visibility: 10mi
Dew Point: 50°   Wind: 8mph
Humidity: 63%   Direction: 180°S
Pressure: 30.23"   Gusts: NA
Location:  31.02°N, 97.3°W
Report Text: KTPL 291615Z AUTO 18007KT 10SM CLR 17/10 A3023 RMK AO1
Loading
Personal Weather Stations






























Interactive Weather Map New forecast layout! Learn more

10-Day Weather Forecast

Advertisements
Track Severe Weather on mobile